sensor_id;sensor_type;location;lat;lon;timestamp;temperature;humidity
23116;DHT22;11727;52.134;5.052;2023-04-03T00:02:16;3.90;99.90
23116;DHT22;11727;52.134;5.052;2023-04-03T00:04:42;3.90;99.90
23116;DHT22;11727;52.134;5.052;2023-04-03T00:07:08;3.90;99.90
23116;DHT22;11727;52.134;5.052;2023-04-03T00:09:33;3.90;99.90
23116;DHT22;11727;52.134;5.052;2023-04-03T00:11:59;3.80;99.90
23116;DHT22;11727;52.134;5.052;2023-04-03T00:14:25;3.80;99.90
23116;DHT22;11727;52.134;5.052;2023-04-03T00:16:52;3.80;99.90
23116;DHT22;11727;52.134;5.052;2023-04-03T00:19:18;3.80;99.90
23116;DHT22;11727;52.134;5.052;2023-04-03T00:21:44;3.70;99.90
23116;DHT22;11727;52.134;5.052;2023-04-03T00:24:09;3.70;99.90
23116;DHT22;11727;52.134;5.052;2023-04-03T00:26:35;3.60;99.90
23116;DHT22;11727;52.134;5.052;2023-04-03T00:29:01;3.60;99.90
23116;DHT22;11727;52.134;5.052;2023-04-03T00:31:26;3.60;99.90
23116;DHT22;11727;52.134;5.052;2023-04-03T00:33:52;3.50;99.90
23116;DHT22;11727;52.134;5.052;2023-04-03T00:36:17;3.50;99.90
23116;DHT22;11727;52.134;5.052;2023-04-03T00:38:43;3.40;99.90
23116;DHT22;11727;52.134;5.052;2023-04-03T00:41:09;3.40;99.90
23116;DHT22;11727;52.134;5.052;2023-04-03T00:43:35;3.30;99.90
23116;DHT22;11727;52.134;5.052;2023-04-03T00:46:00;3.30;99.90
23116;DHT22;11727;52.134;5.052;2023-04-03T00:48:32;3.30;99.90
23116;DHT22;11727;52.134;5.052;2023-04-03T00:51:01;3.30;99.90
23116;DHT22;11727;52.134;5.052;2023-04-03T00:53:33;3.20;99.90
23116;DHT22;11727;52.134;5.052;2023-04-03T00:56:00;3.20;99.90
23116;DHT22;11727;52.134;5.052;2023-04-03T00:58:32;3.20;99.90
23116;DHT22;11727;52.134;5.052;2023-04-03T01:01:03;3.20;99.90
23116;DHT22;11727;52.134;5.052;2023-04-03T01:03:30;3.20;99.90
23116;DHT22;11727;52.134;5.052;2023-04-03T01:05:57;3.20;99.90
23116;DHT22;11727;52.134;5.052;2023-04-03T01:08:23;3.10;99.90
23116;DHT22;11727;52.134;5.052;2023-04-03T01:10:49;3.10;99.90
23116;DHT22;11727;52.134;5.052;2023-04-03T01:13:22;3.10;99.90
23116;DHT22;11727;52.134;5.052;2023-04-03T01:15:48;3.10;99.90
23116;DHT22;11727;52.134;5.052;2023-04-03T01:18:13;3.00;99.90
23116;DHT22;11727;52.134;5.052;2023-04-03T01:26:21;3.00;99.90
23116;DHT22;11727;52.134;5.052;2023-04-03T01:28:46;2.90;99.90
23116;DHT22;11727;52.134;5.052;2023-04-03T01:31:22;2.90;99.90
23116;DHT22;11727;52.134;5.052;2023-04-03T01:33:50;2.90;99.90
23116;DHT22;11727;52.134;5.052;2023-04-03T01:36:22;2.90;99.90
23116;DHT22;11727;52.134;5.052;2023-04-03T01:38:49;2.90;99.90
23116;DHT22;11727;52.134;5.052;2023-04-03T01:41:15;2.80;99.90
23116;DHT22;11727;52.134;5.052;2023-04-03T01:43:41;2.80;99.90
23116;DHT22;11727;52.134;5.052;2023-04-03T01:46:07;2.80;99.90
23116;DHT22;11727;52.134;5.052;2023-04-03T01:48:33;2.80;99.90
23116;DHT22;11727;52.134;5.052;2023-04-03T01:50:59;2.70;99.90
23116;DHT22;11727;52.134;5.052;2023-04-03T01:53:24;2.70;99.90
23116;DHT22;11727;52.134;5.052;2023-04-03T01:55:50;2.70;99.90
23116;DHT22;11727;52.134;5.052;2023-04-03T01:58:16;2.70;99.90
23116;DHT22;11727;52.134;5.052;2023-04-03T02:00:42;2.70;99.90
23116;DHT22;11727;52.134;5.052;2023-04-03T02:03:07;2.70;99.90
23116;DHT22;11727;52.134;5.052;2023-04-03T02:05:33;2.70;99.90
23116;DHT22;11727;52.134;5.052;2023-04-03T02:07:58;2.60;99.90
23116;DHT22;11727;52.134;5.052;2023-04-03T02:10:24;2.60;99.90
23116;DHT22;11727;52.134;5.052;2023-04-03T02:12:50;2.70;99.90
23116;DHT22;11727;52.134;5.052;2023-04-03T02:15:16;2.60;99.90
23116;DHT22;11727;52.134;5.052;2023-04-03T02:17:42;2.60;99.90
23116;DHT22;11727;52.134;5.052;2023-04-03T02:20:08;2.60;99.90
23116;DHT22;11727;52.134;5.052;2023-04-03T02:22:33;2.60;99.90
23116;DHT22;11727;52.134;5.052;2023-04-03T02:24:59;2.50;99.90
23116;DHT22;11727;52.134;5.052;2023-04-03T02:27:25;2.50;99.90
23116;DHT22;11727;52.134;5.052;2023-04-03T02:29:50;2.50;99.90
23116;DHT22;11727;52.134;5.052;2023-04-03T02:32:16;2.40;99.90
23116;DHT22;11727;52.134;5.052;2023-04-03T02:34:41;2.40;99.90
23116;DHT22;11727;52.134;5.052;2023-04-03T02:37:07;2.40;99.90
23116;DHT22;11727;52.134;5.052;2023-04-03T02:39:34;2.30;99.90
23116;DHT22;11727;52.134;5.052;2023-04-03T02:42:00;2.30;99.90
23116;DHT22;11727;52.134;5.052;2023-04-03T02:44:26;2.20;99.90
23116;DHT22;11727;52.134;5.052;2023-04-03T02:46:51;2.20;99.90
23116;DHT22;11727;52.134;5.052;2023-04-03T02:49:17;2.20;99.90
23116;DHT22;11727;52.134;5.052;2023-04-03T02:51:43;2.10;99.90
23116;DHT22;11727;52.134;5.052;2023-04-03T02:54:08;2.10;99.90
23116;DHT22;11727;52.134;5.052;2023-04-03T02:56:34;2.10;99.90
23116;DHT22;11727;52.134;5.052;2023-04-03T02:59:00;2.00;99.90
23116;DHT22;11727;52.134;5.052;2023-04-03T03:01:25;2.00;99.90
23116;DHT22;11727;52.134;5.052;2023-04-03T03:03:54;2.00;99.90
23116;DHT22;11727;52.134;5.052;2023-04-03T03:06:19;1.90;99.90
23116;DHT22;11727;52.134;5.052;2023-04-03T03:08:45;1.90;99.90
23116;DHT22;11727;52.134;5.052;2023-04-03T03:11:11;1.90;99.90
23116;DHT22;11727;52.134;5.052;2023-04-03T03:13:37;1.90;99.90
23116;DHT22;11727;52.134;5.052;2023-04-03T03:16:03;1.90;99.90
23116;DHT22;11727;52.134;5.052;2023-04-03T03:18:29;1.90;99.90
23116;DHT22;11727;52.134;5.052;2023-04-03T03:20:57;1.80;99.90
23116;DHT22;11727;52.134;5.052;2023-04-03T03:23:24;1.80;99.90
23116;DHT22;11727;52.134;5.052;2023-04-03T03:25:54;1.80;99.90
23116;DHT22;11727;52.134;5.052;2023-04-03T03:28:20;1.80;99.90
23116;DHT22;11727;52.134;5.052;2023-04-03T03:30:45;1.80;99.90
23116;DHT22;11727;52.134;5.052;2023-04-03T03:33:11;1.70;99.90
23116;DHT22;11727;52.134;5.052;2023-04-03T03:35:37;1.70;99.90
23116;DHT22;11727;52.134;5.052;2023-04-03T03:38:03;1.70;99.90
23116;DHT22;11727;52.134;5.052;2023-04-03T03:40:28;1.70;99.90
23116;DHT22;11727;52.134;5.052;2023-04-03T03:42:54;1.70;99.90
23116;DHT22;11727;52.134;5.052;2023-04-03T03:45:19;1.70;99.90
23116;DHT22;11727;52.134;5.052;2023-04-03T03:47:45;1.70;99.90
23116;DHT22;11727;52.134;5.052;2023-04-03T03:50:11;1.60;99.90
23116;DHT22;11727;52.134;5.052;2023-04-03T03:52:36;1.60;99.90
23116;DHT22;11727;52.134;5.052;2023-04-03T03:55:02;1.60;99.90
23116;DHT22;11727;52.134;5.052;2023-04-03T03:57:28;1.60;99.90
23116;DHT22;11727;52.134;5.052;2023-04-03T03:59:54;1.60;99.90
23116;DHT22;11727;52.134;5.052;2023-04-03T04:02:20;1.50;99.90
23116;DHT22;11727;52.134;5.052;2023-04-03T04:04:46;1.50;99.90
23116;DHT22;11727;52.134;5.052;2023-04-03T04:07:12;1.50;99.90
23116;DHT22;11727;52.134;5.052;2023-04-03T04:09:38;1.50;99.90
23116;DHT22;11727;52.134;5.052;2023-04-03T04:12:03;1.40;99.90
23116;DHT22;11727;52.134;5.052;2023-04-03T04:14:29;1.50;99.90
23116;DHT22;11727;52.134;5.052;2023-04-03T04:16:55;1.40;99.90
23116;DHT22;11727;52.134;5.052;2023-04-03T04:19:20;1.40;99.90
23116;DHT22;11727;52.134;5.052;2023-04-03T04:21:46;1.40;99.90
23116;DHT22;11727;52.134;5.052;2023-04-03T04:24:11;1.40;99.90
23116;DHT22;11727;52.134;5.052;2023-04-03T04:26:37;1.40;99.90
23116;DHT22;11727;52.134;5.052;2023-04-03T04:29:02;1.40;99.90
23116;DHT22;11727;52.134;5.052;2023-04-03T04:31:28;1.40;99.90
23116;DHT22;11727;52.134;5.052;2023-04-03T04:33:54;1.30;99.90
23116;DHT22;11727;52.134;5.052;2023-04-03T04:36:19;1.40;99.90
23116;DHT22;11727;52.134;5.052;2023-04-03T04:38:46;1.40;99.90
23116;DHT22;11727;52.134;5.052;2023-04-03T04:41:11;1.30;99.90
23116;DHT22;11727;52.134;5.052;2023-04-03T04:43:37;1.30;99.90
23116;DHT22;11727;52.134;5.052;2023-04-03T04:46:03;1.30;99.90
23116;DHT22;11727;52.134;5.052;2023-04-03T04:48:29;1.30;99.90
23116;DHT22;11727;52.134;5.052;2023-04-03T04:50:55;1.30;99.90
23116;DHT22;11727;52.134;5.052;2023-04-03T04:53:21;1.30;99.90
23116;DHT22;11727;52.134;5.052;2023-04-03T04:55:47;1.30;99.90
23116;DHT22;11727;52.134;5.052;2023-04-03T04:58:13;1.30;99.90
23116;DHT22;11727;52.134;5.052;2023-04-03T05:00:38;1.30;99.90
23116;DHT22;11727;52.134;5.052;2023-04-03T05:03:04;1.20;99.90
23116;DHT22;11727;52.134;5.052;2023-04-03T05:05:30;1.20;99.90
23116;DHT22;11727;52.134;5.052;2023-04-03T05:07:55;1.20;99.90
23116;DHT22;11727;52.134;5.052;2023-04-03T05:10:21;1.10;99.90
23116;DHT22;11727;52.134;5.052;2023-04-03T05:12:46;1.10;99.90
23116;DHT22;11727;52.134;5.052;2023-04-03T05:15:12;1.10;99.90
23116;DHT22;11727;52.134;5.052;2023-04-03T05:17:38;1.00;99.90
23116;DHT22;11727;52.134;5.052;2023-04-03T05:20:04;1.00;99.90
23116;DHT22;11727;52.134;5.052;2023-04-03T05:22:30;1.10;99.90
23116;DHT22;11727;52.134;5.052;2023-04-03T05:24:56;1.10;99.90
23116;DHT22;11727;52.134;5.052;2023-04-03T05:27:22;1.10;99.90
23116;DHT22;11727;52.134;5.052;2023-04-03T05:29:49;1.10;99.90
23116;DHT22;11727;52.134;5.052;2023-04-03T05:32:15;1.10;99.90
23116;DHT22;11727;52.134;5.052;2023-04-03T05:34:41;1.10;99.90
23116;DHT22;11727;52.134;5.052;2023-04-03T05:37:07;1.10;99.90
23116;DHT22;11727;52.134;5.052;2023-04-03T05:39:32;1.10;99.90
23116;DHT22;11727;52.134;5.052;2023-04-03T05:41:59;1.10;99.90
23116;DHT22;11727;52.134;5.052;2023-04-03T05:44:24;1.10;99.90
23116;DHT22;11727;52.134;5.052;2023-04-03T05:46:50;1.10;99.90
23116;DHT22;11727;52.134;5.052;2023-04-03T05:49:16;1.10;99.90
23116;DHT22;11727;52.134;5.052;2023-04-03T05:51:41;1.20;99.90
23116;DHT22;11727;52.134;5.052;2023-04-03T05:54:20;1.20;99.90
23116;DHT22;11727;52.134;5.052;2023-04-03T05:56:49;1.20;99.90
23116;DHT22;11727;52.134;5.052;2023-04-03T05:59:16;1.20;99.90
23116;DHT22;11727;52.134;5.052;2023-04-03T06:01:41;1.30;99.90
23116;DHT22;11727;52.134;5.052;2023-04-03T06:04:07;1.30;99.90
23116;DHT22;11727;52.134;5.052;2023-04-03T06:06:57;1.30;99.90
23116;DHT22;11727;52.134;5.052;2023-04-03T06:09:25;1.40;99.90
23116;DHT22;11727;52.134;5.052;2023-04-03T06:11:52;1.40;99.90
23116;DHT22;11727;52.134;5.052;2023-04-03T06:14:18;1.40;99.90
23116;DHT22;11727;52.134;5.052;2023-04-03T06:16:44;1.50;99.90
23116;DHT22;11727;52.134;5.052;2023-04-03T06:19:11;1.50;99.90
23116;DHT22;11727;52.134;5.052;2023-04-03T06:21:37;1.60;99.90
23116;DHT22;11727;52.134;5.052;2023-04-03T06:24:06;1.60;99.90
23116;DHT22;11727;52.134;5.052;2023-04-03T06:26:32;1.60;99.90
23116;DHT22;11727;52.134;5.052;2023-04-03T06:28:59;1.70;99.90
23116;DHT22;11727;52.134;5.052;2023-04-03T06:31:24;1.70;99.90
23116;DHT22;11727;52.134;5.052;2023-04-03T06:33:50;1.80;99.90
23116;DHT22;11727;52.134;5.052;2023-04-03T06:36:18;1.90;99.90
23116;DHT22;11727;52.134;5.052;2023-04-03T06:38:48;2.10;99.90
23116;DHT22;11727;52.134;5.052;2023-04-03T06:41:14;2.40;99.90
23116;DHT22;11727;52.134;5.052;2023-04-03T06:43:42;2.60;99.90
23116;DHT22;11727;52.134;5.052;2023-04-03T06:46:15;2.80;99.90
23116;DHT22;11727;52.134;5.052;2023-04-03T06:48:42;3.00;99.90
23116;DHT22;11727;52.134;5.052;2023-04-03T06:51:18;3.30;99.90
23116;DHT22;11727;52.134;5.052;2023-04-03T06:53:46;3.50;99.90
23116;DHT22;11727;52.134;5.052;2023-04-03T06:56:12;3.60;99.90
23116;DHT22;11727;52.134;5.052;2023-04-03T06:58:38;3.70;99.90
23116;DHT22;11727;52.134;5.052;2023-04-03T07:01:03;3.90;99.90
23116;DHT22;11727;52.134;5.052;2023-04-03T07:03:29;4.10;99.90
23116;DHT22;11727;52.134;5.052;2023-04-03T07:05:55;4.30;99.90
23116;DHT22;11727;52.134;5.052;2023-04-03T07:08:21;4.50;99.90
23116;DHT22;11727;52.134;5.052;2023-04-03T07:10:48;4.60;99.90
23116;DHT22;11727;52.134;5.052;2023-04-03T07:13:14;4.80;99.90
23116;DHT22;11727;52.134;5.052;2023-04-03T07:15:40;5.00;99.90
23116;DHT22;11727;52.134;5.052;2023-04-03T07:18:05;5.10;99.90
23116;DHT22;11727;52.134;5.052;2023-04-03T07:20:31;5.20;99.90
23116;DHT22;11727;52.134;5.052;2023-04-03T07:22:57;5.30;99.90
23116;DHT22;11727;52.134;5.052;2023-04-03T07:25:22;5.40;99.90
23116;DHT22;11727;52.134;5.052;2023-04-03T07:27:48;5.50;99.90
23116;DHT22;11727;52.134;5.052;2023-04-03T07:30:14;5.60;99.90
23116;DHT22;11727;52.134;5.052;2023-04-03T07:32:40;5.80;99.90
23116;DHT22;11727;52.134;5.052;2023-04-03T07:35:06;6.00;99.90
23116;DHT22;11727;52.134;5.052;2023-04-03T07:37:32;6.20;99.90
23116;DHT22;11727;52.134;5.052;2023-04-03T07:39:58;6.30;99.90
23116;DHT22;11727;52.134;5.052;2023-04-03T07:42:24;6.50;99.90
23116;DHT22;11727;52.134;5.052;2023-04-03T07:44:53;6.80;99.90
23116;DHT22;11727;52.134;5.052;2023-04-03T07:47:19;7.00;99.90
23116;DHT22;11727;52.134;5.052;2023-04-03T07:49:46;7.10;99.90
23116;DHT22;11727;52.134;5.052;2023-04-03T07:52:12;7.20;99.90
23116;DHT22;11727;52.134;5.052;2023-04-03T07:54:40;7.30;99.90
23116;DHT22;11727;52.134;5.052;2023-04-03T07:57:06;7.40;99.90
23116;DHT22;11727;52.134;5.052;2023-04-03T07:59:32;7.50;99.90
23116;DHT22;11727;52.134;5.052;2023-04-03T08:01:57;7.60;99.90
23116;DHT22;11727;52.134;5.052;2023-04-03T08:04:23;7.70;99.90
23116;DHT22;11727;52.134;5.052;2023-04-03T08:06:49;7.80;99.90
23116;DHT22;11727;52.134;5.052;2023-04-03T08:09:15;7.90;99.90
23116;DHT22;11727;52.134;5.052;2023-04-03T08:11:41;7.90;99.90
23116;DHT22;11727;52.134;5.052;2023-04-03T08:14:07;7.90;99.90
23116;DHT22;11727;52.134;5.052;2023-04-03T08:16:33;8.10;99.90
23116;DHT22;11727;52.134;5.052;2023-04-03T08:18:58;8.10;99.90
23116;DHT22;11727;52.134;5.052;2023-04-03T08:21:24;8.30;99.90
23116;DHT22;11727;52.134;5.052;2023-04-03T08:23:51;8.50;99.90
23116;DHT22;11727;52.134;5.052;2023-04-03T08:26:19;8.60;99.90
23116;DHT22;11727;52.134;5.052;2023-04-03T08:28:47;8.60;99.90
23116;DHT22;11727;52.134;5.052;2023-04-03T08:31:18;8.70;99.90
23116;DHT22;11727;52.134;5.052;2023-04-03T08:33:44;8.70;99.90
23116;DHT22;11727;52.134;5.052;2023-04-03T08:36:36;8.80;99.90
23116;DHT22;11727;52.134;5.052;2023-04-03T08:39:02;8.80;99.90
23116;DHT22;11727;52.134;5.052;2023-04-03T08:41:38;8.80;99.90
23116;DHT22;11727;52.134;5.052;2023-04-03T08:44:25;8.70;99.90
23116;DHT22;11727;52.134;5.052;2023-04-03T08:50:07;9.30;99.90
23116;DHT22;11727;52.134;5.052;2023-04-03T08:52:40;9.50;99.90
23116;DHT22;11727;52.134;5.052;2023-04-03T08:55:20;9.50;99.90
23116;DHT22;11727;52.134;5.052;2023-04-03T08:57:48;9.40;99.90
23116;DHT22;11727;52.134;5.052;2023-04-03T09:00:21;9.60;99.90
23116;DHT22;11727;52.134;5.052;2023-04-03T09:05:38;9.80;99.90
23116;DHT22;11727;52.134;5.052;2023-04-03T09:08:28;10.00;99.90
23116;DHT22;11727;52.134;5.052;2023-04-03T09:11:24;10.00;99.90
23116;DHT22;11727;52.134;5.052;2023-04-03T09:17:00;10.00;99.90
23116;DHT22;11727;52.134;5.052;2023-04-03T09:21:59;10.20;99.90
23116;DHT22;11727;52.134;5.052;2023-04-03T09:24:26;10.30;99.90
23116;DHT22;11727;52.134;5.052;2023-04-03T09:26:59;10.40;99.90
23116;DHT22;11727;52.134;5.052;2023-04-03T09:29:28;10.30;99.90
23116;DHT22;11727;52.134;5.052;2023-04-03T09:32:02;10.50;99.90
23116;DHT22;11727;52.134;5.052;2023-04-03T09:34:36;10.50;99.90
23116;DHT22;11727;52.134;5.052;2023-04-03T09:37:03;10.50;99.90
23116;DHT22;11727;52.134;5.052;2023-04-03T09:39:33;10.40;99.90
23116;DHT22;11727;52.134;5.052;2023-04-03T09:42:20;10.30;99.90
23116;DHT22;11727;52.134;5.052;2023-04-03T09:44:59;10.20;99.90
23116;DHT22;11727;52.134;5.052;2023-04-03T09:47:34;10.30;99.90
23116;DHT22;11727;52.134;5.052;2023-04-03T09:52:39;10.30;99.90
23116;DHT22;11727;52.134;5.052;2023-04-03T09:55:21;10.30;99.90
23116;DHT22;11727;52.134;5.052;2023-04-03T09:58:03;10.30;99.90
23116;DHT22;11727;52.134;5.052;2023-04-03T10:00:38;10.30;99.30
23116;DHT22;11727;52.134;5.052;2023-04-03T10:03:31;10.50;99.90
23116;DHT22;11727;52.134;5.052;2023-04-03T10:05:58;10.70;99.00
23116;DHT22;11727;52.134;5.052;2023-04-03T10:08:32;10.90;98.10
23116;DHT22;11727;52.134;5.052;2023-04-03T10:11:15;10.80;99.20
23116;DHT22;11727;52.134;5.052;2023-04-03T10:13:56;10.70;97.50
23116;DHT22;11727;52.134;5.052;2023-04-03T10:19:14;10.80;97.90
23116;DHT22;11727;52.134;5.052;2023-04-03T10:22:04;10.90;97.00
23116;DHT22;11727;52.134;5.052;2023-04-03T10:27:07;11.30;96.70
23116;DHT22;11727;52.134;5.052;2023-04-03T10:30:21;11.20;95.20
23116;DHT22;11727;52.134;5.052;2023-04-03T10:32:36;11.20;95.50
23116;DHT22;11727;52.134;5.052;2023-04-03T10:35:25;11.20;95.80
23116;DHT22;11727;52.134;5.052;2023-04-03T10:41:17;11.70;96.10
23116;DHT22;11727;52.134;5.052;2023-04-03T10:44:08;11.60;94.40
23116;DHT22;11727;52.134;5.052;2023-04-03T10:46:47;11.60;94.60
23116;DHT22;11727;52.134;5.052;2023-04-03T10:49:39;11.50;94.10
23116;DHT22;11727;52.134;5.052;2023-04-03T10:52:26;11.50;94.20
23116;DHT22;11727;52.134;5.052;2023-04-03T10:55:14;11.60;94.60
23116;DHT22;11727;52.134;5.052;2023-04-03T10:57:42;11.70;94.20
23116;DHT22;11727;52.134;5.052;2023-04-03T11:00:16;11.70;93.40
23116;DHT22;11727;52.134;5.052;2023-04-03T11:03:00;11.70;93.70
23116;DHT22;11727;52.134;5.052;2023-04-03T11:05:36;11.90;92.90
23116;DHT22;11727;52.134;5.052;2023-04-03T11:08:21;11.80;92.80
23116;DHT22;11727;52.134;5.052;2023-04-03T11:10:50;11.80;93.20
23116;DHT22;11727;52.134;5.052;2023-04-03T11:16:02;12.10;92.70
23116;DHT22;11727;52.134;5.052;2023-04-03T11:21:05;12.20;91.90
23116;DHT22;11727;52.134;5.052;2023-04-03T11:23:35;12.20;91.50
23116;DHT22;11727;52.134;5.052;2023-04-03T11:26:09;12.30;91.80
23116;DHT22;11727;52.134;5.052;2023-04-03T11:28:37;12.40;93.10
23116;DHT22;11727;52.134;5.052;2023-04-03T11:34:23;12.30;91.50
23116;DHT22;11727;52.134;5.052;2023-04-03T11:36:58;12.20;91.60
23116;DHT22;11727;52.134;5.052;2023-04-03T11:39:29;12.50;91.20
23116;DHT22;11727;52.134;5.052;2023-04-03T11:47:56;12.70;93.20
23116;DHT22;11727;52.134;5.052;2023-04-03T11:50:42;12.70;93.20
23116;DHT22;11727;52.134;5.052;2023-04-03T11:55:52;12.80;93.50
23116;DHT22;11727;52.134;5.052;2023-04-03T11:58:21;12.90;93.30
23116;DHT22;11727;52.134;5.052;2023-04-03T12:24:30;12.90;93.30
23116;DHT22;11727;52.134;5.052;2023-04-03T12:29:38;12.70;92.20
23116;DHT22;11727;52.134;5.052;2023-04-03T12:40:37;12.50;94.40
23116;DHT22;11727;52.134;5.052;2023-04-03T12:48:34;12.60;93.20
23116;DHT22;11727;52.134;5.052;2023-04-03T12:51:03;12.60;94.20
23116;DHT22;11727;52.134;5.052;2023-04-03T12:53:32;12.70;93.40
23116;DHT22;11727;52.134;5.052;2023-04-03T12:56:26;12.80;92.70
23116;DHT22;11727;52.134;5.052;2023-04-03T12:58:54;12.80;93.00
23116;DHT22;11727;52.134;5.052;2023-04-03T13:01:26;12.90;93.00
23116;DHT22;11727;52.134;5.052;2023-04-03T13:03:54;12.80;93.40
23116;DHT22;11727;52.134;5.052;2023-04-03T13:06:46;12.90;94.10
23116;DHT22;11727;52.134;5.052;2023-04-03T13:09:26;12.90;93.90
23116;DHT22;11727;52.134;5.052;2023-04-03T13:12:09;12.80;93.90
23116;DHT22;11727;52.134;5.052;2023-04-03T13:14:36;12.70;93.50
23116;DHT22;11727;52.134;5.052;2023-04-03T13:17:15;13.10;94.60
23116;DHT22;11727;52.134;5.052;2023-04-03T13:19:41;13.20;92.20
23116;DHT22;11727;52.134;5.052;2023-04-03T13:24:53;13.00;92.30
23116;DHT22;11727;52.134;5.052;2023-04-03T13:27:19;13.00;92.40
23116;DHT22;11727;52.134;5.052;2023-04-03T13:29:53;13.10;92.10
23116;DHT22;11727;52.134;5.052;2023-04-03T13:32:22;13.40;92.90
23116;DHT22;11727;52.134;5.052;2023-04-03T13:34:49;13.30;92.80
23116;DHT22;11727;52.134;5.052;2023-04-03T13:37:27;13.40;92.70
23116;DHT22;11727;52.134;5.052;2023-04-03T13:42:35;13.40;92.10
23116;DHT22;11727;52.134;5.052;2023-04-03T13:45:28;13.20;92.20
23116;DHT22;11727;52.134;5.052;2023-04-03T13:48:16;13.30;92.60
23116;DHT22;11727;52.134;5.052;2023-04-03T13:50:59;13.40;93.00
23116;DHT22;11727;52.134;5.052;2023-04-03T13:53:30;13.40;92.40
23116;DHT22;11727;52.134;5.052;2023-04-03T13:58:29;13.30;92.90
23116;DHT22;11727;52.134;5.052;2023-04-03T14:01:18;13.40;92.60
23116;DHT22;11727;52.134;5.052;2023-04-03T14:06:17;13.00;92.30
23116;DHT22;11727;52.134;5.052;2023-04-03T14:08:44;13.00;92.00
23116;DHT22;11727;52.134;5.052;2023-04-03T14:11:24;12.90;91.50
23116;DHT22;11727;52.134;5.052;2023-04-03T14:13:52;12.90;92.10
23116;DHT22;11727;52.134;5.052;2023-04-03T14:16:21;13.00;92.60
23116;DHT22;11727;52.134;5.052;2023-04-03T14:18:48;13.00;92.20
23116;DHT22;11727;52.134;5.052;2023-04-03T14:21:15;13.00;92.70
23116;DHT22;11727;52.134;5.052;2023-04-03T14:23:41;13.00;93.10
23116;DHT22;11727;52.134;5.052;2023-04-03T14:26:13;13.20;93.30
23116;DHT22;11727;52.134;5.052;2023-04-03T14:28:42;13.20;92.80
23116;DHT22;11727;52.134;5.052;2023-04-03T14:31:10;13.30;93.10
23116;DHT22;11727;52.134;5.052;2023-04-03T14:33:36;13.30;93.10
23116;DHT22;11727;52.134;5.052;2023-04-03T14:36:12;13.40;93.30
23116;DHT22;11727;52.134;5.052;2023-04-03T14:38:38;13.40;92.90
23116;DHT22;11727;52.134;5.052;2023-04-03T14:41:03;13.40;93.10
23116;DHT22;11727;52.134;5.052;2023-04-03T14:43:29;13.50;93.80
23116;DHT22;11727;52.134;5.052;2023-04-03T14:45:55;13.30;93.50
23116;DHT22;11727;52.134;5.052;2023-04-03T14:48:25;13.20;93.40
23116;DHT22;11727;52.134;5.052;2023-04-03T14:50:52;13.00;93.50
23116;DHT22;11727;52.134;5.052;2023-04-03T14:53:19;13.00;93.40
23116;DHT22;11727;52.134;5.052;2023-04-03T14:55:48;13.00;93.70
23116;DHT22;11727;52.134;5.052;2023-04-03T14:58:17;13.20;94.20
23116;DHT22;11727;52.134;5.052;2023-04-03T15:00:43;13.20;93.40
23116;DHT22;11727;52.134;5.052;2023-04-03T15:03:21;13.00;92.70
23116;DHT22;11727;52.134;5.052;2023-04-03T15:05:47;12.80;93.70
23116;DHT22;11727;52.134;5.052;2023-04-03T15:08:24;12.90;93.60
23116;DHT22;11727;52.134;5.052;2023-04-03T15:10:51;12.70;93.60
23116;DHT22;11727;52.134;5.052;2023-04-03T15:13:18;12.70;93.40
23116;DHT22;11727;52.134;5.052;2023-04-03T15:15:45;12.70;94.40
23116;DHT22;11727;52.134;5.052;2023-04-03T15:18:36;12.90;94.40
23116;DHT22;11727;52.134;5.052;2023-04-03T15:21:03;12.90;94.40
23116;DHT22;11727;52.134;5.052;2023-04-03T15:23:29;13.00;94.30
23116;DHT22;11727;52.134;5.052;2023-04-03T15:25:55;12.90;93.70
23116;DHT22;11727;52.134;5.052;2023-04-03T15:31:16;12.80;94.10
23116;DHT22;11727;52.134;5.052;2023-04-03T15:33:41;12.60;94.20
23116;DHT22;11727;52.134;5.052;2023-04-03T15:36:08;12.70;94.90
23116;DHT22;11727;52.134;5.052;2023-04-03T15:38:33;12.70;94.70
23116;DHT22;11727;52.134;5.052;2023-04-03T15:40:59;12.80;94.50
23116;DHT22;11727;52.134;5.052;2023-04-03T15:43:25;12.70;95.10
23116;DHT22;11727;52.134;5.052;2023-04-03T15:45:51;12.70;95.10
23116;DHT22;11727;52.134;5.052;2023-04-03T15:48:17;12.70;95.40
23116;DHT22;11727;52.134;5.052;2023-04-03T15:50:43;12.60;94.50
23116;DHT22;11727;52.134;5.052;2023-04-03T15:53:09;12.50;95.00
23116;DHT22;11727;52.134;5.052;2023-04-03T15:55:36;12.40;95.10
23116;DHT22;11727;52.134;5.052;2023-04-03T15:58:03;12.20;95.50
23116;DHT22;11727;52.134;5.052;2023-04-03T16:00:30;12.00;95.90
23116;DHT22;11727;52.134;5.052;2023-04-03T16:03:04;11.90;95.90
23116;DHT22;11727;52.134;5.052;2023-04-03T16:05:31;11.80;96.10
23116;DHT22;11727;52.134;5.052;2023-04-03T16:07:59;11.70;96.80
23116;DHT22;11727;52.134;5.052;2023-04-03T16:10:25;11.50;96.80
23116;DHT22;11727;52.134;5.052;2023-04-03T16:12:51;11.40;96.50
23116;DHT22;11727;52.134;5.052;2023-04-03T16:15:17;11.40;97.00
23116;DHT22;11727;52.134;5.052;2023-04-03T16:17:43;11.40;96.90
23116;DHT22;11727;52.134;5.052;2023-04-03T16:20:10;11.40;97.20
23116;DHT22;11727;52.134;5.052;2023-04-03T16:22:36;11.40;97.50
23116;DHT22;11727;52.134;5.052;2023-04-03T16:25:04;11.50;97.60
23116;DHT22;11727;52.134;5.052;2023-04-03T16:27:30;11.40;97.30
23116;DHT22;11727;52.134;5.052;2023-04-03T16:29:57;11.20;97.20
23116;DHT22;11727;52.134;5.052;2023-04-03T16:32:23;10.90;97.30
23116;DHT22;11727;52.134;5.052;2023-04-03T16:34:49;10.80;97.70
23116;DHT22;11727;52.134;5.052;2023-04-03T16:37:16;10.60;97.70
23116;DHT22;11727;52.134;5.052;2023-04-03T16:39:42;10.60;98.40
23116;DHT22;11727;52.134;5.052;2023-04-03T16:42:08;10.40;98.40
23116;DHT22;11727;52.134;5.052;2023-04-03T16:44:35;10.40;98.90
23116;DHT22;11727;52.134;5.052;2023-04-03T16:47:01;10.30;99.50
23116;DHT22;11727;52.134;5.052;2023-04-03T16:49:27;10.30;99.20
23116;DHT22;11727;52.134;5.052;2023-04-03T16:51:58;10.20;98.90
23116;DHT22;11727;52.134;5.052;2023-04-03T16:54:24;10.00;99.00
23116;DHT22;11727;52.134;5.052;2023-04-03T16:56:50;9.90;99.70
23116;DHT22;11727;52.134;5.052;2023-04-03T16:59:16;9.80;99.70
23116;DHT22;11727;52.134;5.052;2023-04-03T17:01:41;9.80;99.90
23116;DHT22;11727;52.134;5.052;2023-04-03T17:04:07;9.70;99.90
23116;DHT22;11727;52.134;5.052;2023-04-03T17:06:33;9.60;99.90
23116;DHT22;11727;52.134;5.052;2023-04-03T17:08:58;9.60;99.90
23116;DHT22;11727;52.134;5.052;2023-04-03T17:11:24;9.40;99.90
23116;DHT22;11727;52.134;5.052;2023-04-03T17:13:50;9.30;99.90
23116;DHT22;11727;52.134;5.052;2023-04-03T17:16:16;9.30;99.90
23116;DHT22;11727;52.134;5.052;2023-04-03T17:18:43;9.20;99.90
23116;DHT22;11727;52.134;5.052;2023-04-03T17:21:16;9.10;99.90
23116;DHT22;11727;52.134;5.052;2023-04-03T17:23:45;9.00;99.90
23116;DHT22;11727;52.134;5.052;2023-04-03T17:26:11;8.90;99.90
23116;DHT22;11727;52.134;5.052;2023-04-03T17:28:37;8.80;99.90
23116;DHT22;11727;52.134;5.052;2023-04-03T17:31:05;8.70;99.90